createdAt,value
2022-11-02T08:57:56.968Z,44.75
2022-11-02T09:00:46.695Z,48.65
2022-11-02T09:03:36.112Z,52.50
2022-11-02T09:06:25.234Z,52.45
2022-11-02T09:09:14.124Z,45.78
2022-11-02T09:12:03.160Z,45.58
2022-11-02T09:14:54.075Z,45.60
2022-11-02T09:17:43.684Z,49.88
2022-11-02T09:20:33.187Z,43.45
2022-11-02T09:23:23.332Z,44.70
2022-11-02T09:26:12.951Z,36.72
2022-11-02T09:29:02.601Z,43.47
2022-11-02T09:31:53.667Z,38.33
2022-11-02T09:34:43.054Z,39.83
2022-11-02T09:37:32.839Z,41.85
2022-11-02T09:40:23.924Z,42.10
2022-11-02T09:43:22.047Z,41.95
2022-11-02T09:46:14.997Z,38.33
2022-11-02T09:49:08.443Z,46.80
2022-11-02T09:51:59.234Z,38.25
2022-11-02T09:54:53.456Z,35.20
2022-11-02T09:57:46.638Z,41.97
2022-11-02T10:00:40.943Z,41.47
2022-11-02T10:03:40.814Z,39.08
2022-11-02T10:06:33.337Z,44.33
2022-11-02T10:09:29.559Z,38.63
2022-11-02T10:12:26.448Z,34.28
2022-11-02T10:15:20.972Z,42.03
2022-11-02T10:18:17.909Z,45.30
2022-11-02T10:21:09.840Z,48.50
2022-11-02T10:24:05.364Z,41.60
2022-11-02T10:26:58.201Z,40.58
2022-11-02T10:29:55.300Z,39.65
2022-11-02T10:32:46.331Z,40.78
2022-11-02T10:36:04.861Z,46.10
2022-11-02T10:39:07.005Z,41.67
2022-11-02T10:42:18.684Z,47.13
2022-11-02T10:45:34.234Z,37.80
2022-11-02T10:48:34.331Z,37.50
2022-11-02T10:51:24.943Z,37.97
2022-11-02T10:54:21.574Z,46.05
2022-11-02T10:57:24.307Z,47.47
2022-11-02T11:00:31.632Z,44.00
2022-11-02T11:03:21.302Z,45.28
2022-11-02T11:06:13.865Z,44.72
2022-11-02T11:09:06.742Z,41.10
2022-11-02T11:12:00.563Z,42.85
2022-11-02T11:21:20.323Z,48.03
2022-11-02T11:24:27.989Z,42.15
2022-11-02T11:27:21.024Z,45.53
2022-11-02T11:30:58.218Z,49.35
2022-11-02T11:33:43.216Z,44.22
2022-11-02T11:36:34.937Z,41.65
2022-11-02T11:39:29.385Z,44.78
2022-11-02T11:42:23.946Z,49.80
2022-11-02T11:45:21.755Z,45.17
2022-11-02T11:48:26.619Z,47.80
2022-11-02T11:51:30.276Z,44.63
2022-11-02T11:54:23.865Z,44.08
2022-11-02T11:57:25.519Z,46.33
2022-11-02T12:00:28.756Z,46.60
2022-11-02T12:03:18.337Z,46.30
2022-11-02T12:06:11.024Z,43.80
2022-11-02T12:09:04.574Z,38.75
2022-11-02T12:11:56.775Z,39.70
2022-11-02T12:14:54.831Z,40.25
2022-11-02T12:17:50.084Z,50.83
2022-11-02T12:20:53.257Z,43.65
2022-11-02T12:23:54.977Z,42.20
2022-11-02T12:26:58.342Z,42.55
2022-11-02T12:30:08.225Z,48.75
2022-11-02T12:33:10.092Z,38.92
2022-11-02T12:36:12.533Z,44.88
2022-11-02T12:39:09.558Z,37.30
2022-11-02T12:42:12.870Z,37.33
2022-11-02T12:45:21.605Z,40.55
2022-11-02T12:48:20.926Z,39.85
2022-11-02T12:51:14.160Z,40.47
2022-11-02T12:54:11.929Z,38.88
2022-11-02T12:57:01.632Z,38.55
2022-11-02T12:59:55.180Z,37.30
2022-11-02T13:02:56.866Z,37.00
2022-11-02T13:05:51.244Z,38.38
2022-11-02T13:08:46.541Z,38.67
2022-11-02T13:11:39.641Z,37.88
2022-11-02T13:14:36.242Z,39.22
2022-11-02T13:17:28.905Z,42.08
2022-11-02T13:20:23.856Z,42.08
2022-11-02T13:23:19.727Z,37.60
2022-11-02T13:26:27.022Z,34.47
2022-11-02T13:29:20.711Z,37.15
2022-11-02T13:32:15.818Z,36.88
2022-11-02T13:35:16.910Z,35.30
2022-11-02T13:38:25.407Z,35.25
2022-11-02T13:41:31.069Z,34.13
2022-11-02T13:44:55.655Z,29.00
2022-11-02T13:48:06.468Z,28.15
2022-11-02T13:50:59.484Z,33.75
2022-11-02T13:53:57.375Z,34.83
2022-11-02T13:56:48.678Z,27.55
2022-11-02T13:59:43.204Z,31.58
2022-11-02T14:02:38.089Z,33.97
2022-11-02T14:05:30.529Z,34.53
2022-11-02T14:08:28.385Z,26.73
2022-11-02T14:11:37.205Z,36.33
2022-11-02T14:14:26.733Z,33.35
2022-11-02T14:17:17.452Z,34.40
2022-11-02T14:20:34.226Z,33.38
2022-11-02T14:23:38.295Z,34.25
2022-11-02T14:26:56.264Z,32.58
2022-11-02T14:29:54.284Z,29.23
2022-11-02T14:32:53.097Z,31.25
2022-11-02T14:35:46.184Z,31.30
2022-11-02T14:38:58.445Z,33.03
2022-11-02T14:42:35.031Z,27.25
2022-11-02T14:45:37.945Z,26.67
2022-11-02T14:48:32.351Z,31.25
2022-11-02T14:51:25.103Z,32.75
2022-11-02T14:54:19.717Z,32.70
2022-11-02T14:57:19.994Z,33.08
2022-11-02T15:00:21.207Z,32.10
2022-11-02T15:03:34.467Z,37.15
2022-11-02T15:06:26.507Z,35.65
2022-11-02T15:09:35.630Z,33.60
2022-11-02T15:12:38.594Z,32.92
2022-11-02T15:15:34.811Z,31.40
2022-11-02T15:18:32.878Z,31.17
2022-11-02T15:21:40.863Z,32.28
2022-11-02T15:24:31.959Z,29.25
2022-11-02T15:27:22.946Z,28.98
2022-11-02T15:30:16.223Z,35.80
2022-11-02T15:33:07.461Z,32.67
2022-11-02T15:35:57.304Z,31.33
2022-11-02T15:38:53.388Z,37.63
2022-11-02T15:41:47.051Z,36.25
2022-11-02T15:45:14.104Z,33.28
2022-11-02T15:48:26.979Z,33.08
2022-11-02T15:51:25.289Z,30.75
2022-11-02T15:54:34.955Z,33.53
2022-11-02T15:57:40.619Z,35.58
2022-11-02T16:00:33.127Z,32.85
2022-11-02T16:03:22.632Z,32.17
2022-11-02T16:06:12.296Z,33.38
2022-11-02T16:09:05.273Z,32.25
2022-11-02T16:12:05.475Z,39.10
2022-11-02T16:14:57.902Z,32.30
2022-11-02T16:17:49.815Z,32.15
2022-11-02T16:20:41.206Z,33.53
2022-11-02T16:23:32.189Z,37.13
2022-11-02T16:26:23.605Z,31.75
2022-11-02T16:29:27.311Z,35.40
2022-11-02T16:32:17.511Z,36.10
2022-11-02T16:35:07.377Z,30.38
2022-11-02T16:37:58.809Z,39.13
2022-11-02T16:40:47.881Z,40.35
2022-11-02T16:43:42.982Z,39.58
2022-11-02T16:46:44.489Z,34.08
2022-11-02T16:49:35.475Z,35.30
2022-11-02T16:52:27.305Z,37.72
2022-11-02T16:55:39.784Z,34.70
2022-11-02T16:58:30.062Z,34.80
2022-11-02T17:01:24.046Z,43.60
2022-11-02T17:04:21.457Z,32.90
2022-11-02T17:07:15.831Z,36.33
2022-11-02T17:10:07.213Z,28.17
2022-11-02T17:12:58.306Z,32.17
2022-11-02T17:15:50.362Z,34.78
2022-11-02T17:18:39.700Z,32.67
2022-11-02T17:21:31.653Z,36.67
2022-11-02T17:24:35.637Z,38.28
2022-11-02T17:27:26.840Z,34.53
2022-11-02T17:30:46.484Z,33.17
2022-11-02T17:33:35.144Z,38.22
2022-11-02T17:36:27.307Z,37.70
2022-11-02T17:39:19.091Z,36.55
2022-11-02T17:42:28.183Z,41.47
2022-11-02T17:45:37.694Z,37.85
2022-11-02T17:48:29.111Z,41.28
2022-11-02T17:51:19.778Z,61.45
2022-11-02T17:54:10.783Z,50.17
2022-11-02T17:57:03.130Z,39.05
2022-11-02T17:59:52.678Z,37.08
2022-11-02T18:02:41.628Z,35.58
2022-11-02T18:05:31.643Z,38.05
2022-11-02T18:08:20.768Z,34.40
2022-11-02T18:11:10.779Z,38.83
2022-11-02T18:14:01.608Z,42.15
2022-11-02T18:16:52.918Z,34.58
2022-11-02T18:19:42.122Z,34.15
2022-11-02T18:22:31.870Z,36.50
2022-11-02T18:28:15.792Z,33.53
2022-11-02T18:31:07.075Z,35.85
2022-11-02T18:33:56.806Z,34.80
2022-11-02T18:36:46.162Z,37.00
2022-11-02T18:39:35.648Z,36.33
2022-11-02T18:42:24.351Z,37.42
2022-11-02T18:45:16.180Z,37.63
2022-11-02T18:48:07.825Z,35.78
2022-11-02T18:50:57.709Z,38.85
2022-11-02T18:53:46.801Z,34.78
2022-11-02T18:56:36.169Z,33.75
2022-11-02T18:59:25.627Z,35.83
2022-11-02T19:02:15.857Z,39.97
2022-11-02T19:05:28.637Z,33.13
2022-11-02T19:08:35.167Z,39.22
2022-11-02T19:11:24.773Z,40.70
2022-11-02T19:14:14.053Z,35.83
2022-11-02T19:17:03.973Z,39.03
2022-11-02T19:19:52.986Z,35.38
2022-11-02T19:22:43.692Z,42.42
2022-11-02T19:25:32.842Z,34.30
2022-11-02T19:28:22.440Z,41.60
2022-11-02T19:31:11.199Z,41.08
2022-11-02T19:34:01.579Z,37.08
2022-11-02T19:36:51.694Z,37.30
2022-11-02T19:39:42.667Z,35.85
2022-11-02T19:42:32.060Z,38.08
2022-11-02T19:45:21.823Z,39.83
2022-11-02T19:48:11.043Z,46.90
2022-11-02T19:51:07.592Z,37.65
2022-11-02T19:53:58.111Z,38.88
2022-11-02T19:56:48.958Z,36.47
2022-11-02T19:59:38.401Z,42.03
2022-11-02T20:02:27.943Z,43.55
2022-11-02T20:05:17.268Z,38.85
2022-11-02T20:08:07.252Z,42.05
2022-11-02T20:11:02.660Z,41.83
2022-11-02T21:26:01.173Z,43.58
2022-11-02T21:28:50.683Z,49.50
2022-11-02T21:31:39.933Z,53.30
2022-11-02T21:34:29.149Z,46.60
2022-11-02T21:37:18.535Z,50.13
2022-11-02T21:40:09.098Z,50.03
2022-11-02T21:42:59.601Z,49.58
2022-11-02T21:45:53.492Z,45.58
2022-11-02T21:48:42.755Z,47.15
2022-11-02T21:51:31.670Z,41.83
2022-11-02T21:54:20.957Z,47.78
2022-11-02T21:57:09.985Z,49.92
2022-11-02T22:00:00.641Z,48.80
2022-11-02T22:02:50.215Z,48.38
2022-11-02T22:05:59.552Z,50.17
2022-11-02T22:08:48.867Z,50.90
2022-11-02T22:11:38.153Z,51.38
2022-11-02T22:14:27.446Z,47.72
2022-11-02T22:17:43.221Z,45.22
2022-11-02T22:20:28.045Z,58.75
2022-11-02T22:23:16.858Z,59.53
2022-11-02T22:26:07.555Z,62.20
2022-11-02T22:28:58.408Z,54.67
2022-11-02T22:31:47.701Z,56.35
2022-11-02T22:34:38.557Z,63.58
2022-11-02T22:37:45.123Z,58.25
2022-11-02T22:40:34.170Z,59.85
2022-11-02T22:43:22.928Z,59.67
2022-11-02T22:46:12.867Z,63.70
2022-11-02T22:49:02.886Z,67.28
2022-11-02T22:51:53.485Z,64.90
2022-11-02T22:54:42.590Z,64.80
2022-11-02T22:57:31.697Z,73.38
2022-11-02T23:00:21.242Z,77.85
2022-11-02T23:03:10.736Z,67.80
2022-11-02T23:06:00.010Z,75.13
2022-11-02T23:08:51.342Z,68.32
2022-11-02T23:11:40.939Z,74.07
2022-11-02T23:14:29.874Z,73.05
2022-11-02T23:17:18.977Z,75.15
2022-11-02T23:20:07.725Z,72.15
2022-11-02T23:23:17.638Z,74.32
2022-11-02T23:26:08.456Z,73.85
2022-11-02T23:29:23.885Z,68.95
2022-11-02T23:32:29.700Z,80.63
2022-11-02T23:35:36.563Z,76.57
2022-11-02T23:38:46.068Z,72.32
2022-11-02T23:41:39.033Z,76.75
2022-11-02T23:44:29.433Z,77.78
2022-11-02T23:47:18.704Z,95.00
2022-11-02T23:50:08.626Z,101.60
2022-11-02T23:53:20.668Z,89.28
2022-11-02T23:56:33.387Z,84.03
2022-11-02T23:59:24.307Z,87.25
